createdAt,value
2023-03-14T00:01:13.595Z,38.30
2023-03-14T00:03:42.010Z,36.93
2023-03-14T00:06:10.931Z,27.50
2023-03-14T00:08:39.495Z,28.95
2023-03-14T00:11:21.794Z,31.73
2023-03-14T00:16:22.288Z,26.83
2023-03-14T00:18:50.614Z,39.63
2023-03-14T00:21:18.868Z,65.88
2023-03-14T00:23:47.415Z,76.70
2023-03-14T00:26:18.471Z,75.15
2023-03-14T00:28:46.994Z,32.08
2023-03-14T00:31:17.200Z,42.00
2023-03-14T00:33:46.674Z,74.32
2023-03-14T00:36:17.122Z,121.35
2023-03-14T00:38:48.304Z,67.93
2023-03-14T00:41:20.180Z,40.20
2023-03-14T00:43:48.914Z,32.13
2023-03-14T00:46:17.607Z,84.28
2023-03-14T00:48:48.980Z,94.88
2023-03-14T00:51:18.219Z,70.95
2023-03-14T00:53:46.561Z,90.78
2023-03-14T00:56:15.525Z,94.18
2023-03-14T00:58:44.165Z,78.10
2023-03-14T01:01:17.395Z,63.03
2023-03-14T01:03:46.961Z,45.35
2023-03-14T01:06:21.373Z,67.07
2023-03-14T01:08:50.014Z,77.20
2023-03-14T01:11:22.133Z,62.00
2023-03-14T01:13:50.632Z,67.63
2023-03-14T01:16:20.164Z,64.75
2023-03-14T01:18:49.183Z,63.83
2023-03-14T01:21:25.425Z,63.42
2023-03-14T01:23:55.397Z,69.20
2023-03-14T01:26:25.496Z,93.03
2023-03-14T01:28:56.211Z,115.82
2023-03-14T01:31:26.272Z,120.75
2023-03-14T01:33:55.405Z,111.22
2023-03-14T01:36:23.730Z,92.15
2023-03-14T01:38:52.405Z,99.15
2023-03-14T01:41:23.878Z,84.05
2023-03-14T01:43:54.178Z,79.30
2023-03-14T01:46:33.614Z,79.88
2023-03-14T01:49:08.952Z,96.72
2023-03-14T01:51:41.429Z,91.82
2023-03-14T01:54:19.481Z,82.55
2023-03-14T01:56:54.653Z,85.88
2023-03-14T01:59:23.430Z,100.05
2023-03-14T02:01:53.308Z,105.80
2023-03-14T02:04:21.939Z,99.70
2023-03-14T02:07:04.629Z,99.75
2023-03-14T02:09:39.900Z,96.15
2023-03-14T02:14:52.120Z,93.43
2023-03-14T02:17:27.661Z,99.13
2023-03-14T02:20:43.386Z,88.17
2023-03-14T02:23:12.048Z,67.50
2023-03-14T02:26:16.381Z,67.20
2023-03-14T02:28:44.888Z,74.40
2023-03-14T02:31:13.633Z,65.90
2023-03-14T02:33:43.505Z,69.65
2023-03-14T02:36:15.000Z,64.18
2023-03-14T02:38:59.955Z,71.65
2023-03-14T02:41:31.126Z,70.38
2023-03-14T02:44:03.382Z,76.05
2023-03-14T02:46:32.709Z,68.97
2023-03-14T02:49:06.478Z,68.43
2023-03-14T02:51:35.038Z,75.13
2023-03-14T02:54:03.313Z,62.05
2023-03-14T02:56:31.757Z,63.83
2023-03-14T02:59:07.474Z,63.15
2023-03-14T03:01:43.282Z,75.35
2023-03-14T03:04:11.539Z,67.22
2023-03-14T03:06:39.772Z,64.45
2023-03-14T03:09:08.130Z,69.80
2023-03-14T03:11:37.072Z,70.57
2023-03-14T03:14:06.661Z,58.95
2023-03-14T03:16:35.221Z,70.72
2023-03-14T03:19:03.448Z,67.90
2023-03-14T03:21:31.662Z,68.80
2023-03-14T03:23:59.862Z,71.60
2023-03-14T03:26:28.089Z,66.90
2023-03-14T03:28:56.472Z,55.65
2023-03-14T03:31:25.356Z,62.80
2023-03-14T03:33:53.737Z,71.43
2023-03-14T03:36:26.637Z,68.45
2023-03-14T03:38:55.040Z,70.57
2023-03-14T03:41:23.217Z,73.10
2023-03-14T03:43:52.604Z,85.70
2023-03-14T03:46:21.972Z,91.00
2023-03-14T03:48:59.752Z,80.60
2023-03-14T03:51:29.393Z,67.88
2023-03-14T03:53:58.662Z,65.88
2023-03-14T03:56:31.698Z,80.22
2023-03-14T03:59:00.099Z,77.63
2023-03-14T04:01:29.033Z,99.85
2023-03-14T04:04:00.141Z,97.78
2023-03-14T04:06:29.176Z,94.75
2023-03-14T04:09:00.464Z,91.13
2023-03-14T04:11:47.394Z,80.68
2023-03-14T04:14:21.611Z,101.07
2023-03-14T04:16:55.961Z,73.95
2023-03-14T04:19:24.540Z,85.22
2023-03-14T04:21:55.039Z,82.30
2023-03-14T04:24:26.216Z,84.20
2023-03-14T04:26:55.063Z,85.38
2023-03-14T04:29:23.652Z,74.00
2023-03-14T04:31:51.922Z,95.85
2023-03-14T04:34:20.251Z,109.03
2023-03-14T04:36:54.436Z,106.07
2023-03-14T04:39:30.114Z,88.18
2023-03-14T04:42:08.102Z,96.30
2023-03-14T04:44:38.794Z,95.72
2023-03-14T04:47:08.033Z,89.72
2023-03-14T04:49:37.034Z,96.78
2023-03-14T04:52:07.060Z,98.22
2023-03-14T04:54:37.710Z,77.25
2023-03-14T04:57:06.472Z,62.33
2023-03-14T04:59:37.372Z,65.35
2023-03-14T05:02:17.932Z,79.45
2023-03-14T05:05:06.736Z,88.32
2023-03-14T05:07:46.938Z,87.53
2023-03-14T05:10:33.232Z,97.22
2023-03-14T05:13:29.216Z,84.93
2023-03-14T05:16:17.788Z,83.68
2023-03-14T05:19:12.976Z,70.35
2023-03-14T05:21:59.470Z,94.30
2023-03-14T05:24:56.696Z,84.85
2023-03-14T05:27:47.370Z,68.10
2023-03-14T05:30:41.083Z,93.20
2023-03-14T05:33:09.252Z,83.47
2023-03-14T05:35:51.580Z,88.43
2023-03-14T05:38:39.612Z,86.63
2023-03-14T05:41:24.826Z,68.93
2023-03-14T05:43:58.694Z,79.80
2023-03-14T05:46:52.974Z,65.38
2023-03-14T05:49:41.435Z,58.70
2023-03-14T05:52:16.982Z,87.40
2023-03-14T05:55:06.326Z,66.97
2023-03-14T05:57:48.668Z,73.07
2023-03-14T06:00:37.793Z,67.95
2023-03-14T06:03:22.299Z,70.25
2023-03-14T06:05:53.934Z,69.15
2023-03-14T06:08:24.411Z,60.97
2023-03-14T06:10:53.660Z,54.58
2023-03-14T06:13:27.264Z,70.60
2023-03-14T06:27:21.462Z,71.00
2023-03-14T06:29:55.460Z,70.03
2023-03-14T06:32:25.672Z,77.60
2023-03-14T06:34:56.995Z,81.20
2023-03-14T06:37:25.931Z,93.57
2023-03-14T06:39:55.284Z,79.82
2023-03-14T06:42:43.566Z,76.80
2023-03-14T06:45:12.562Z,84.38
2023-03-14T06:47:41.377Z,70.88
2023-03-14T06:50:11.189Z,61.53
2023-03-14T06:52:39.915Z,74.10
2023-03-14T06:55:09.047Z,64.70
2023-03-14T06:57:38.075Z,55.85
2023-03-14T07:00:07.993Z,50.05
2023-03-14T07:02:43.070Z,62.60
2023-03-14T07:05:24.830Z,47.55
2023-03-14T07:07:53.541Z,54.42
2023-03-14T07:10:22.068Z,61.47
2023-03-14T07:12:51.990Z,62.83
2023-03-14T07:15:20.355Z,48.40
2023-03-14T07:17:53.404Z,55.03
2023-03-14T07:20:24.106Z,49.13
2023-03-14T07:22:53.031Z,42.22
2023-03-14T07:25:31.835Z,46.83
2023-03-14T07:28:00.636Z,56.33
2023-03-14T07:30:29.149Z,45.13
2023-03-14T07:33:01.335Z,58.47
2023-03-14T07:35:30.582Z,52.35
2023-03-14T07:37:58.902Z,45.60
2023-03-14T07:40:34.925Z,43.85
2023-03-14T07:43:05.528Z,46.78
2023-03-14T07:45:51.322Z,42.65
2023-03-14T07:48:20.141Z,33.20
2023-03-14T07:50:52.099Z,40.60
2023-03-14T07:53:21.194Z,37.58
2023-03-14T07:55:49.515Z,31.63
2023-03-14T07:58:17.924Z,22.17
2023-03-14T08:00:46.025Z,32.00
2023-03-14T08:03:14.367Z,32.30
2023-03-14T08:05:42.728Z,39.20
2023-03-14T08:08:11.010Z,38.75
2023-03-14T08:10:41.366Z,26.73
2023-03-14T08:13:10.651Z,32.22
2023-03-14T08:15:39.255Z,36.75
2023-03-14T08:18:07.762Z,43.45
2023-03-14T08:20:37.320Z,28.20
2023-03-14T08:23:05.753Z,36.42
2023-03-14T08:25:34.327Z,28.45
2023-03-14T08:28:02.591Z,36.70
2023-03-14T08:30:30.970Z,27.38
2023-03-14T08:32:59.875Z,36.72
2023-03-14T08:35:28.430Z,34.55
2023-03-14T08:37:57.536Z,34.85
2023-03-14T08:40:25.835Z,27.88
2023-03-14T08:42:54.202Z,41.47
2023-03-14T08:45:22.419Z,43.20
2023-03-14T08:47:50.675Z,40.58
2023-03-14T08:50:19.239Z,43.50
2023-03-14T08:52:47.353Z,48.88
2023-03-14T08:55:16.289Z,77.35
2023-03-14T08:57:44.688Z,45.28
2023-03-14T09:00:13.614Z,71.90
2023-03-14T09:02:41.999Z,44.92
2023-03-14T09:05:10.883Z,46.20
2023-03-14T09:07:40.182Z,56.38
2023-03-14T09:10:10.340Z,58.30
2023-03-14T09:12:38.700Z,53.83
2023-03-14T09:15:09.191Z,60.58
2023-03-14T09:17:37.449Z,87.63
2023-03-14T09:20:08.602Z,73.55
2023-03-14T09:22:36.951Z,156.65
2023-03-14T09:25:08.336Z,54.03
2023-03-14T09:27:36.607Z,42.38
2023-03-14T09:30:05.576Z,66.05
2023-03-14T09:32:33.785Z,34.60
2023-03-14T09:35:02.462Z,36.08
2023-03-14T09:37:30.788Z,34.10
2023-03-14T09:39:59.064Z,39.22
2023-03-14T09:42:30.128Z,47.13
2023-03-14T09:45:04.165Z,58.65
2023-03-14T09:47:34.496Z,29.92
2023-03-14T09:50:05.912Z,36.28
2023-03-14T09:52:38.367Z,39.33
2023-03-14T09:55:23.648Z,57.83
2023-03-14T09:57:56.551Z,25.90
2023-03-14T10:00:29.233Z,73.30
2023-03-14T10:03:23.926Z,32.80
2023-03-14T10:05:52.428Z,35.17
2023-03-14T10:08:20.686Z,35.97
2023-03-14T10:10:49.044Z,25.75
2023-03-14T10:13:19.882Z,36.15
2023-03-14T10:15:55.570Z,25.48
2023-03-14T10:18:26.418Z,27.30
2023-03-14T10:21:27.516Z,66.65
2023-03-14T10:23:56.069Z,43.42
2023-03-14T10:26:29.496Z,25.77
2023-03-14T10:29:10.179Z,19.33
2023-03-14T10:32:07.042Z,25.73
2023-03-14T10:34:40.600Z,31.30
2023-03-14T10:37:27.752Z,32.15
2023-03-14T10:40:00.340Z,43.00
2023-03-14T10:42:31.481Z,37.35
2023-03-14T10:45:03.856Z,39.17
2023-03-14T10:47:33.519Z,35.55
2023-03-14T10:50:37.310Z,35.00
2023-03-14T10:53:05.675Z,43.90
2023-03-14T10:55:51.725Z,54.83
2023-03-14T10:58:33.094Z,43.33
2023-03-14T11:01:24.793Z,24.90
2023-03-14T11:04:27.579Z,30.53
2023-03-14T11:07:17.333Z,25.30
2023-03-14T11:10:15.028Z,66.57
2023-03-14T11:13:20.696Z,37.15
2023-03-14T11:16:07.598Z,24.30
2023-03-14T11:19:20.611Z,27.02
2023-03-14T11:22:00.724Z,29.35
2023-03-14T11:24:41.936Z,27.73
2023-03-14T11:27:23.256Z,32.55
2023-03-14T11:30:10.097Z,16.33
2023-03-14T11:32:51.689Z,24.67
2023-03-14T11:35:43.249Z,36.10
2023-03-14T11:38:26.596Z,20.17
2023-03-14T11:40:57.941Z,29.00
2023-03-14T11:43:34.478Z,26.95
2023-03-14T11:46:10.010Z,48.58
2023-03-14T11:48:44.448Z,51.40
2023-03-14T11:51:47.617Z,35.08
2023-03-14T11:54:43.124Z,24.33
2023-03-14T11:57:17.606Z,38.25
2023-03-14T11:59:52.703Z,24.95
2023-03-14T12:02:27.802Z,58.08
2023-03-14T12:05:37.860Z,32.47
2023-03-14T12:08:09.158Z,65.55
2023-03-14T12:10:51.175Z,64.82
2023-03-14T12:13:20.258Z,42.40
2023-03-14T12:16:01.990Z,59.38
2023-03-14T12:18:33.360Z,61.20
2023-03-14T12:21:11.397Z,78.70
2023-03-14T12:23:57.149Z,60.33
2023-03-14T12:26:28.585Z,51.50
2023-03-14T12:28:59.916Z,52.03
2023-03-14T12:31:31.299Z,49.30
2023-03-14T12:34:11.882Z,76.35
2023-03-14T12:36:49.229Z,45.30
2023-03-14T12:39:47.723Z,60.90
2023-03-14T12:42:45.159Z,67.72
2023-03-14T12:45:44.789Z,32.95
2023-03-14T12:48:33.464Z,37.20
2023-03-14T12:51:16.581Z,28.85
2023-03-14T12:54:06.120Z,34.80
2023-03-14T12:56:47.164Z,28.33
2023-03-14T12:59:35.905Z,26.35
2023-03-14T13:02:08.039Z,34.15
2023-03-14T13:04:44.636Z,22.20
2023-03-14T13:07:29.847Z,29.10
2023-03-14T13:10:17.315Z,36.35
2023-03-14T13:12:48.317Z,34.92
2023-03-14T13:15:43.971Z,38.67
2023-03-14T13:18:19.044Z,23.00
2023-03-14T13:20:54.701Z,46.15
2023-03-14T13:23:29.302Z,35.53
2023-03-14T13:25:58.565Z,28.45
2023-03-14T13:28:28.227Z,44.60
2023-03-14T13:31:04.893Z,39.40
2023-03-14T13:33:35.539Z,22.50
2023-03-14T13:36:06.501Z,31.40
2023-03-14T13:38:37.525Z,55.35
2023-03-14T13:41:08.248Z,33.17
2023-03-14T13:43:41.217Z,39.42
2023-03-14T13:46:19.384Z,25.27
2023-03-14T13:48:56.458Z,29.00
2023-03-14T13:51:25.126Z,27.58
2023-03-14T13:53:57.571Z,23.80
2023-03-14T13:56:31.754Z,32.85
2023-03-14T13:59:00.116Z,28.83
2023-03-14T14:01:34.380Z,28.13
2023-03-14T14:04:18.628Z,27.95
2023-03-14T14:06:52.186Z,34.10
2023-03-14T14:09:30.163Z,28.60
2023-03-14T14:12:15.983Z,32.65
2023-03-14T14:14:55.801Z,17.35
2023-03-14T14:17:37.657Z,32.97
2023-03-14T14:20:09.079Z,25.42
2023-03-14T14:22:37.870Z,37.65
2023-03-14T14:25:06.381Z,30.55
2023-03-14T14:27:44.403Z,30.52
2023-03-14T14:30:21.457Z,29.45
2023-03-14T14:32:51.615Z,24.92
2023-03-14T14:35:36.686Z,24.60
2023-03-14T14:38:11.685Z,36.47
2023-03-14T14:40:50.523Z,28.10
2023-03-14T14:43:25.940Z,21.90
2023-03-14T14:45:56.249Z,29.73
2023-03-14T14:48:26.605Z,23.73
2023-03-14T14:51:03.208Z,22.67
2023-03-14T14:53:43.071Z,35.75
2023-03-14T14:56:27.143Z,27.85
2023-03-14T14:59:01.283Z,34.63
2023-03-14T15:01:40.810Z,26.17
2023-03-14T15:04:14.891Z,16.77
2023-03-14T15:06:50.662Z,35.50
2023-03-14T15:09:18.843Z,25.30
2023-03-14T15:11:47.482Z,20.10
2023-03-14T15:14:15.809Z,28.58
2023-03-14T15:16:44.165Z,27.50
2023-03-14T15:19:25.586Z,25.88
2023-03-14T15:21:57.408Z,32.63
2023-03-14T15:24:25.981Z,31.45
2023-03-14T15:26:54.531Z,35.72
2023-03-14T15:29:22.790Z,21.08
2023-03-14T15:31:50.968Z,44.28
2023-03-14T15:34:19.350Z,24.85
2023-03-14T15:36:47.550Z,20.98
2023-03-14T15:39:15.846Z,36.60
2023-03-14T15:41:44.251Z,25.42
2023-03-14T15:44:12.445Z,31.13
2023-03-14T15:46:40.784Z,35.38
2023-03-14T15:49:10.774Z,31.83
2023-03-14T15:51:41.881Z,27.52
2023-03-14T15:54:10.090Z,22.30
2023-03-14T15:56:40.397Z,30.08
2023-03-14T15:59:09.854Z,28.60
2023-03-14T16:01:38.157Z,22.45
2023-03-14T16:04:06.492Z,24.70
2023-03-14T16:06:35.042Z,22.83
2023-03-14T16:09:03.136Z,35.10
2023-03-14T16:11:31.448Z,34.70
2023-03-14T16:13:59.708Z,26.85
2023-03-14T16:16:27.986Z,17.42
2023-03-14T16:18:56.358Z,21.98
2023-03-14T16:21:24.828Z,29.23
2023-03-14T16:23:53.026Z,19.90
2023-03-14T16:26:21.964Z,21.20
2023-03-14T16:28:50.142Z,25.10
2023-03-14T16:31:20.476Z,35.15
2023-03-14T16:33:48.866Z,31.45
2023-03-14T16:36:17.259Z,27.73
2023-03-14T16:38:46.890Z,35.25
2023-03-14T16:41:21.021Z,26.48
2023-03-14T16:43:49.389Z,30.33
2023-03-14T16:46:18.879Z,27.80
2023-03-14T16:48:47.335Z,35.10
2023-03-14T16:51:17.071Z,63.20
2023-03-14T16:53:46.246Z,37.28
2023-03-14T16:56:14.958Z,43.92
2023-03-14T16:58:44.220Z,56.22
2023-03-14T17:01:14.539Z,41.58
2023-03-14T17:03:52.989Z,39.60
2023-03-14T17:06:24.562Z,50.78
2023-03-14T17:08:54.800Z,47.33
2023-03-14T17:11:23.602Z,35.72
2023-03-14T17:13:51.767Z,56.17
2023-03-14T17:16:20.663Z,57.10
2023-03-14T17:18:49.828Z,35.78
2023-03-14T17:21:18.663Z,30.90
2023-03-14T17:23:46.920Z,34.80
2023-03-14T17:26:15.641Z,53.67
2023-03-14T17:28:44.136Z,80.28
2023-03-14T17:31:18.426Z,39.80
2023-03-14T17:33:47.230Z,33.40
2023-03-14T17:36:15.597Z,50.67
2023-03-14T17:38:44.165Z,47.65
2023-03-14T17:41:14.406Z,71.13
2023-03-14T17:43:43.402Z,38.58
2023-03-14T17:46:13.482Z,47.72
2023-03-14T17:48:43.637Z,53.47
2023-03-14T17:51:18.157Z,40.42
2023-03-14T17:53:46.645Z,34.10
2023-03-14T17:56:15.284Z,27.25
2023-03-14T17:58:43.382Z,50.35
2023-03-14T18:01:17.236Z,64.97
2023-03-14T18:03:46.115Z,44.80
2023-03-14T18:06:16.808Z,38.10
2023-03-14T18:08:45.460Z,86.85
2023-03-14T18:11:14.593Z,40.45
2023-03-14T18:13:43.040Z,63.00
2023-03-14T18:18:49.510Z,43.10
2023-03-14T18:21:19.112Z,24.35
2023-03-14T18:23:47.198Z,65.85
2023-03-14T18:26:15.489Z,108.10
2023-03-14T18:28:43.699Z,86.53
2023-03-14T18:31:13.925Z,66.95
2023-03-14T18:33:42.525Z,57.30
2023-03-14T18:36:12.085Z,54.20
2023-03-14T18:38:41.124Z,47.30
2023-03-14T18:41:11.227Z,55.38
2023-03-14T18:43:39.552Z,44.22
2023-03-14T18:46:08.090Z,51.92
2023-03-14T18:48:36.371Z,68.22
2023-03-14T18:51:04.750Z,65.00
2023-03-14T18:53:32.991Z,70.55
2023-03-14T18:56:02.479Z,115.85
2023-03-14T18:58:31.581Z,70.18
2023-03-14T19:01:02.228Z,50.00
2023-03-14T19:03:31.743Z,54.38
2023-03-14T19:06:01.028Z,71.43
2023-03-14T19:08:29.744Z,107.20
2023-03-14T19:10:58.238Z,56.80
2023-03-14T19:13:26.603Z,68.78
2023-03-14T19:15:55.016Z,58.00
2023-03-14T19:18:23.467Z,53.85
2023-03-14T19:21:14.588Z,86.57
2023-03-14T19:23:44.958Z,88.53
2023-03-14T19:26:13.270Z,82.15
2023-03-14T19:28:41.647Z,59.28
2023-03-14T19:31:10.980Z,75.97
2023-03-14T19:33:39.530Z,101.60
2023-03-14T19:36:08.396Z,87.47
2023-03-14T19:38:36.723Z,77.20
2023-03-14T19:41:05.278Z,125.75
2023-03-14T19:43:33.650Z,70.10
2023-03-14T19:46:02.051Z,76.20
2023-03-14T19:48:30.698Z,101.75
2023-03-14T19:51:01.304Z,104.47
2023-03-14T19:53:29.884Z,76.97
2023-03-14T19:55:58.171Z,74.53
2023-03-14T19:58:26.665Z,55.95
2023-03-14T20:00:57.286Z,53.33
2023-03-14T20:03:26.041Z,69.43
2023-03-14T20:05:54.856Z,61.17
2023-03-14T20:08:23.875Z,62.25
2023-03-14T20:10:52.139Z,72.70
2023-03-14T20:13:22.251Z,71.78
2023-03-14T20:15:51.681Z,63.65
2023-03-14T20:18:19.772Z,58.75
2023-03-14T20:20:48.102Z,71.18
2023-03-14T20:23:16.365Z,84.68
2023-03-14T20:25:44.675Z,65.30
2023-03-14T20:28:13.168Z,113.65
2023-03-14T20:30:44.188Z,89.88
2023-03-14T20:33:12.567Z,126.32
2023-03-14T20:35:40.887Z,94.80
2023-03-14T20:38:09.070Z,48.58
2023-03-14T20:40:37.444Z,59.33
2023-03-14T20:43:05.673Z,54.20
2023-03-14T20:45:33.911Z,92.43
2023-03-14T20:48:02.275Z,92.95
2023-03-14T20:50:30.556Z,70.22
2023-03-14T20:52:58.921Z,72.63
2023-03-14T20:55:27.324Z,84.05
2023-03-14T20:57:55.656Z,95.10
2023-03-14T21:00:23.947Z,95.35
2023-03-14T21:02:52.335Z,64.60
2023-03-14T21:05:20.942Z,52.78
2023-03-14T21:07:49.365Z,60.30
2023-03-14T21:10:18.032Z,47.25
2023-03-14T21:12:46.337Z,52.60
2023-03-14T21:15:14.662Z,114.47
2023-03-14T21:17:43.266Z,61.58
2023-03-14T21:20:13.560Z,75.82
2023-03-14T21:22:41.901Z,55.38
2023-03-14T21:25:10.271Z,36.70
2023-03-14T21:27:42.379Z,45.97
2023-03-14T21:30:12.670Z,56.08
2023-03-14T21:32:40.920Z,73.53
2023-03-14T21:35:09.685Z,64.40
2023-03-14T21:37:37.972Z,63.20
2023-03-14T21:40:06.696Z,74.32
2023-03-14T21:42:35.247Z,65.88
2023-03-14T21:45:03.363Z,67.40
2023-03-14T21:47:31.786Z,71.90
2023-03-14T21:50:00.565Z,61.75
2023-03-14T21:52:28.994Z,61.20
2023-03-14T21:54:57.443Z,137.18
2023-03-14T21:57:25.782Z,111.55
2023-03-14T21:59:54.230Z,76.22
2023-03-14T22:02:22.450Z,51.80
2023-03-14T22:04:50.842Z,43.28
2023-03-14T22:07:20.572Z,43.03
2023-03-14T22:09:52.745Z,50.05
2023-03-14T22:12:21.211Z,57.78
2023-03-14T22:14:49.676Z,95.18
2023-03-14T22:17:18.134Z,82.38
2023-03-14T22:19:46.790Z,85.18
2023-03-14T22:22:14.979Z,98.53
2023-03-14T22:36:37.577Z,34.88
2023-03-14T22:39:05.963Z,32.55
2023-03-14T22:41:35.712Z,35.17
2023-03-14T22:44:04.254Z,38.47
2023-03-14T22:46:32.619Z,52.30
2023-03-14T22:49:01.216Z,44.03
2023-03-14T22:51:29.594Z,40.63
2023-03-14T22:53:57.957Z,40.30
2023-03-14T22:56:26.246Z,33.00
2023-03-14T22:58:56.760Z,31.40
2023-03-14T23:01:25.433Z,38.28
2023-03-14T23:03:54.125Z,62.03
2023-03-14T23:06:22.989Z,48.95
2023-03-14T23:08:51.360Z,62.38
2023-03-14T23:11:19.581Z,40.70
2023-03-14T23:13:48.548Z,48.10
2023-03-14T23:16:17.323Z,28.25
2023-03-14T23:18:46.057Z,31.20
2023-03-14T23:21:17.806Z,39.22
2023-03-14T23:23:48.263Z,36.00
2023-03-14T23:26:23.349Z,23.83
2023-03-14T23:28:53.236Z,36.58
2023-03-14T23:31:22.145Z,23.45
2023-03-14T23:33:51.540Z,31.98
2023-03-14T23:36:20.220Z,29.05
2023-03-14T23:38:48.618Z,28.15
2023-03-14T23:41:16.892Z,46.33
2023-03-14T23:43:49.635Z,54.60
2023-03-14T23:46:18.075Z,53.60
2023-03-14T23:48:46.315Z,50.45
2023-03-14T23:51:15.170Z,48.83
2023-03-14T23:53:44.352Z,51.97
2023-03-14T23:56:18.445Z,37.28
2023-03-14T23:58:46.779Z,35.83
